Time;durP1;ratioP1;P1;durP2;ratioP2;P2;SDS_P1;SDS_P2;PMS_P1;PMS_P2;Temp;Humidity;BMP_temperature;BMP_pressure;BME280_temperature;BME280_humidity;BME280_pressure;Samples;Min_cycle;Max_cycle;Signal;HPM_P1;HPM_P2
2022/10/24 00:07:53;;;;;;;4.97;2.70;;;;;;;;;;21094321;28;20056;-61
2022/10/24 00:17:55;;;;;;;6.20;2.63;;;;;;;;;;21094114;28;20083;-61
2022/10/24 00:27:57;;;;;;;5.65;2.60;;;;;;;;;;21092699;28;20048;-61
2022/10/24 00:37:59;;;;;;;6.68;2.60;;;;;;;;;;21091559;28;20131;-61
2022/10/24 00:48:01;;;;;;;6.57;2.45;;;;;;;;;;21086801;28;20048;-62
2022/10/24 00:58:04;;;;;;;6.13;2.28;;;;;;;;;;21086362;28;20403;-61
2022/10/24 01:08:06;;;;;;;7.40;2.60;;;;;;;;;;21085037;28;20048;-61
2022/10/24 01:18:27;;;;;;;5.35;2.97;;;;;;;;;;21084301;28;20060;-62
2022/10/24 01:28:36;;;;;;;6.93;2.78;;;;;;;;;;21085230;28;20357;-62
2022/10/24 01:38:44;;;;;;;7.18;2.70;;;;;;;;;;21083236;28;20083;-62
2022/10/24 01:48:50;;;;;;;6.97;3.13;;;;;;;;;;21079260;28;161112;-61
2022/10/24 01:58:53;;;;;;;9.95;3.22;;;;;;;;;;21067659;28;20131;-62
2022/10/24 02:08:58;;;;;;;6.13;3.28;;;;;;;;;;21067032;28;20083;-61
2022/10/24 02:19:00;;;;;;;7.38;3.10;;;;;;;;;;21083737;28;20531;-61
2022/10/24 02:29:08;;;;;;;8.27;3.15;;;;;;;;;;21083128;28;20040;-61
2022/10/24 02:39:11;;;;;;;9.43;3.85;;;;;;;;;;21083344;28;20055;-61
2022/10/24 02:49:13;;;;;;;7.15;3.20;;;;;;;;;;21081049;28;20212;-61
2022/10/24 02:59:14;;;;;;;8.60;3.28;;;;;;;;;;21082085;28;20051;-60
2022/10/24 03:09:16;;;;;;;6.95;3.47;;;;;;;;;;21080403;28;20108;-61
2022/10/24 03:19:18;;;;;;;9.90;3.53;;;;;;;;;;21079940;28;20503;-60
2022/10/24 03:29:20;;;;;;;8.40;3.63;;;;;;;;;;21078734;28;20067;-61
2022/10/24 03:39:22;;;;;;;6.72;3.30;;;;;;;;;;21079862;28;20134;-60
2022/10/24 03:49:24;;;;;;;8.07;3.35;;;;;;;;;;21077894;28;20530;-62
2022/10/24 03:59:26;;;;;;;6.35;2.95;;;;;;;;;;21078521;28;20052;-61
2022/10/24 04:09:28;;;;;;;5.72;3.47;;;;;;;;;;21077440;28;20067;-61
2022/10/24 04:19:30;;;;;;;5.32;3.28;;;;;;;;;;21077376;28;20135;-60
2022/10/24 04:29:33;;;;;;;5.55;2.88;;;;;;;;;;21077479;28;20056;-62
2022/10/24 04:39:35;;;;;;;4.57;3.03;;;;;;;;;;21087867;28;20047;-62
2022/10/24 04:49:40;;;;;;;6.15;3.38;;;;;;;;;;21091044;28;20048;-62
2022/10/24 04:59:42;;;;;;;4.38;2.90;;;;;;;;;;21090929;28;20052;-62
2022/10/24 05:09:44;;;;;;;6.35;3.35;;;;;;;;;;21089729;28;20473;-62
2022/10/24 05:19:46;;;;;;;6.88;3.40;;;;;;;;;;21089321;28;20048;-62
2022/10/24 05:29:48;;;;;;;7.30;3.28;;;;;;;;;;21088234;28;20042;-62
2022/10/24 05:39:51;;;;;;;5.45;3.75;;;;;;;;;;21087120;28;20431;-62
2022/10/24 05:49:52;;;;;;;7.45;4.30;;;;;;;;;;21084640;28;20420;-62
2022/10/24 05:59:54;;;;;;;7.07;3.85;;;;;;;;;;21085573;28;20068;-61
2022/10/24 06:09:56;;;;;;;5.97;3.42;;;;;;;;;;21084596;28;20079;-61
2022/10/24 06:19:58;;;;;;;9.70;5.10;;;;;;;;;;21084146;28;20082;-62
2022/10/24 06:30:00;;;;;;;8.65;3.65;;;;;;;;;;21083151;28;20093;-61
2022/10/24 06:40:01;;;;;;;11.15;4.47;;;;;;;;;;21082727;28;20139;-61
2022/10/24 06:50:04;;;;;;;7.65;4.15;;;;;;;;;;21081086;28;20412;-61
2022/10/24 07:00:07;;;;;;;12.02;5.78;;;;;;;;;;21080006;28;20056;-60
2022/10/24 07:10:11;;;;;;;10.77;6.40;;;;;;;;;;21079840;28;20121;-60
2022/10/24 07:20:13;;;;;;;10.43;5.15;;;;;;;;;;21061584;28;20451;-62
2022/10/24 07:30:17;;;;;;;7.10;3.65;;;;;;;;;;21079133;28;20132;-61
2022/10/24 07:40:19;;;;;;;8.07;4.15;;;;;;;;;;21078478;28;20496;-61
2022/10/24 07:50:21;;;;;;;7.97;3.58;;;;;;;;;;21078399;28;20488;-60
2022/10/24 08:00:23;;;;;;;8.35;4.03;;;;;;;;;;21078558;28;20044;-60
2022/10/24 08:10:25;;;;;;;8.52;4.25;;;;;;;;;;21065584;28;20052;-61
2022/10/24 08:20:27;;;;;;;12.82;5.07;;;;;;;;;;21093836;28;20572;-60
2022/10/24 08:30:29;;;;;;;9.30;4.63;;;;;;;;;;21092334;28;20052;-61
2022/10/24 08:40:31;;;;;;;10.95;4.20;;;;;;;;;;21091997;28;20165;-60
2022/10/24 08:50:34;;;;;;;15.05;6.38;;;;;;;;;;21090472;28;20051;-61
2022/10/24 09:00:40;;;;;;;5.68;2.75;;;;;;;;;;21090090;28;20105;-61
2022/10/24 09:10:59;;;;;;;8.85;3.95;;;;;;;;;;21087964;28;20055;-62
2022/10/24 09:21:01;;;;;;;10.32;3.38;;;;;;;;;;21083503;28;20074;-62
2022/10/24 09:31:12;;;;;;;8.25;3.42;;;;;;;;;;21086357;28;20044;-62
2022/10/24 09:41:26;;;;;;;12.93;4.43;;;;;;;;;;21073876;28;20061;-61
2022/10/24 09:51:27;;;;;;;14.10;4.60;;;;;;;;;;21085802;28;20079;-61
2022/10/24 10:01:30;;;;;;;15.50;4.57;;;;;;;;;;21087236;28;20048;-62
2022/10/24 10:11:33;;;;;;;6.43;2.35;;;;;;;;;;21083434;28;20064;-63
2022/10/24 10:21:53;;;;;;;9.95;4.38;;;;;;;;;;21084130;28;20044;-61
2022/10/24 10:32:16;;;;;;;6.22;2.35;;;;;;;;;;21080938;28;20048;-61
2022/10/24 10:42:36;;;;;;;8.15;2.05;;;;;;;;;;21082690;28;20122;-63
2022/10/24 10:52:44;;;;;;;6.78;1.85;;;;;;;;;;21080960;28;20071;-62
2022/10/24 11:02:56;;;;;;;8.33;1.70;;;;;;;;;;21080392;28;20044;-60
2022/10/24 11:12:59;;;;;;;7.47;1.40;;;;;;;;;;21080073;28;20139;-68
2022/10/24 11:23:06;;;;;;;6.53;1.42;;;;;;;;;;21079913;28;20075;-60
2022/10/24 11:33:13;;;;;;;6.45;1.75;;;;;;;;;;21077857;28;20052;-72
2022/10/24 11:43:31;;;;;;;8.30;2.38;;;;;;;;;;21081473;28;20056;-61
2022/10/24 11:53:33;;;;;;;9.47;1.50;;;;;;;;;;21095356;28;20048;-63
2022/10/24 12:03:44;;;;;;;5.82;1.40;;;;;;;;;;21095178;28;20044;-60
2022/10/24 12:13:46;;;;;;;6.30;1.67;;;;;;;;;;21076257;28;20048;-61
2022/10/24 12:23:56;;;;;;;7.32;1.60;;;;;;;;;;21093308;28;20127;-61
2022/10/24 12:34:21;;;;;;;12.52;1.48;;;;;;;;;;21093568;28;20089;-59
2022/10/24 12:44:35;;;;;;;7.30;1.73;;;;;;;;;;21091560;28;20060;-60
2022/10/24 12:54:38;;;;;;;9.55;1.70;;;;;;;;;;21090209;28;20087;-62
2022/10/24 13:04:43;;;;;;;11.23;2.55;;;;;;;;;;21090416;28;20071;-60
2022/10/24 13:14:51;;;;;;;8.40;2.10;;;;;;;;;;21090417;28;20476;-60
2022/10/24 13:24:54;;;;;;;8.30;1.85;;;;;;;;;;21089166;28;20054;-61
2022/10/24 13:34:58;;;;;;;6.05;1.80;;;;;;;;;;21087676;28;20051;-60
2022/10/24 13:45:06;;;;;;;6.10;1.77;;;;;;;;;;21086555;28;20047;-60
2022/10/24 13:55:11;;;;;;;7.03;1.70;;;;;;;;;;21085444;28;20056;-60
2022/10/24 14:05:26;;;;;;;8.43;1.35;;;;;;;;;;21083824;28;20084;-62
2022/10/24 14:15:32;;;;;;;6.72;1.50;;;;;;;;;;21085203;28;20537;-62
2022/10/24 14:25:36;;;;;;;6.25;1.70;;;;;;;;;;21065238;28;20048;-61
2022/10/24 14:35:38;;;;;;;7.40;1.63;;;;;;;;;;21082579;28;20598;-60
2022/10/24 14:45:40;;;;;;;5.70;1.33;;;;;;;;;;21082232;28;20127;-61
2022/10/24 14:55:48;;;;;;;8.73;1.80;;;;;;;;;;21082468;28;20059;-63
2022/10/24 15:06:18;;;;;;;4.35;1.30;;;;;;;;;;21081211;28;20044;-61
2022/10/24 15:16:21;;;;;;;8.90;2.45;;;;;;;;;;21078056;28;20052;-60
2022/10/24 15:26:29;;;;;;;4.82;1.30;;;;;;;;;;21063531;28;20048;-61
2022/10/24 15:36:34;;;;;;;3.28;1.40;;;;;;;;;;21079460;28;20079;-61
2022/10/24 15:46:36;;;;;;;6.47;0.93;;;;;;;;;;21079353;28;20062;-63
2022/10/24 15:56:38;;;;;;;3.42;0.90;;;;;;;;;;21079021;28;20058;-66
2022/10/24 16:06:40;;;;;;;2.63;1.17;;;;;;;;;;21077424;28;20051;-68
2022/10/24 16:16:42;;;;;;;3.03;1.05;;;;;;;;;;21075069;28;20081;-69
2022/10/24 16:26:44;;;;;;;8.35;2.17;;;;;;;;;;21076611;28;20051;-66
2022/10/24 16:36:46;;;;;;;6.60;1.73;;;;;;;;;;21089868;28;20403;-72
2022/10/24 16:46:48;;;;;;;5.07;1.92;;;;;;;;;;21035088;28;20048;-63
2022/10/24 16:56:51;;;;;;;11.18;1.90;;;;;;;;;;21006085;28;20114;-65
2022/10/24 17:06:53;;;;;;;9.35;2.13;;;;;;;;;;21004792;28;20049;-69
2022/10/24 17:16:55;;;;;;;9.20;1.95;;;;;;;;;;21004798;28;20052;-68
2022/10/24 17:26:57;;;;;;;11.45;2.95;;;;;;;;;;21087741;28;20090;-67
2022/10/24 17:37:03;;;;;;;6.75;2.10;;;;;;;;;;21088088;28;20476;-63
2022/10/24 17:47:06;;;;;;;8.13;2.72;;;;;;;;;;21087430;28;20048;-71
2022/10/24 17:57:07;;;;;;;10.57;2.40;;;;;;;;;;21068713;28;20078;-74
2022/10/24 18:07:10;;;;;;;10.60;2.65;;;;;;;;;;21089747;28;20048;-68
2022/10/24 18:17:11;;;;;;;9.18;3.05;;;;;;;;;;21090622;28;20078;-69
2022/10/24 18:27:13;;;;;;;8.43;4.03;;;;;;;;;;21085159;28;20044;-65
2022/10/24 18:37:15;;;;;;;8.57;2.88;;;;;;;;;;21083146;28;20105;-64
2022/10/24 18:47:18;;;;;;;7.65;2.15;;;;;;;;;;21081814;28;20092;-63
2022/10/24 18:57:20;;;;;;;7.35;2.08;;;;;;;;;;21080782;28;20048;-62
2022/10/24 19:07:22;;;;;;;6.53;2.03;;;;;;;;;;21081335;28;20051;-61
2022/10/24 19:17:24;;;;;;;8.80;2.75;;;;;;;;;;21079940;28;20058;-64
2022/10/24 19:27:27;;;;;;;6.93;1.90;;;;;;;;;;21079372;28;20051;-63
2022/10/24 19:37:29;;;;;;;7.35;2.17;;;;;;;;;;21078884;28;20081;-62
2022/10/24 19:47:31;;;;;;;9.18;2.70;;;;;;;;;;21078371;28;20055;-62
2022/10/24 19:57:36;;;;;;;7.25;2.60;;;;;;;;;;21078418;28;20056;-61
2022/10/24 20:07:38;;;;;;;9.88;3.15;;;;;;;;;;21068183;28;20055;-61
2022/10/24 20:17:40;;;;;;;11.80;3.47;;;;;;;;;;21094833;28;20131;-62
2022/10/24 20:27:42;;;;;;;13.52;3.50;;;;;;;;;;21094389;28;20059;-61
2022/10/24 20:37:43;;;;;;;9.25;2.53;;;;;;;;;;21074689;28;20388;-62
2022/10/24 20:47:45;;;;;;;10.45;4.00;;;;;;;;;;21091337;28;20096;-62
2022/10/24 20:57:47;;;;;;;10.93;4.60;;;;;;;;;;21091113;28;20060;-62
2022/10/24 21:07:49;;;;;;;13.02;3.50;;;;;;;;;;21089906;28;20040;-62
2022/10/24 21:17:52;;;;;;;8.23;3.05;;;;;;;;;;21089812;28;20055;-62
2022/10/24 21:27:54;;;;;;;9.73;2.25;;;;;;;;;;21089580;28;20059;-61
2022/10/24 21:37:55;;;;;;;9.70;2.40;;;;;;;;;;21088192;28;20044;-62
2022/10/24 21:47:58;;;;;;;8.40;3.30;;;;;;;;;;21087225;28;20059;-63
2022/10/24 21:58:01;;;;;;;10.52;2.80;;;;;;;;;;21087548;28;20433;-62
2022/10/24 22:08:03;;;;;;;6.55;2.97;;;;;;;;;;21086481;28;20123;-63
2022/10/24 22:18:05;;;;;;;7.72;2.70;;;;;;;;;;21085601;28;20056;-62
2022/10/24 22:28:08;;;;;;;8.98;3.45;;;;;;;;;;21083945;28;20491;-61
2022/10/24 22:38:10;;;;;;;5.72;2.33;;;;;;;;;;21083991;28;20060;-62
2022/10/24 22:48:25;;;;;;;11.70;3.20;;;;;;;;;;21082277;28;20051;-62
2022/10/24 22:58:27;;;;;;;9.77;2.65;;;;;;;;;;21081595;28;20044;-62
2022/10/24 23:08:37;;;;;;;7.45;2.42;;;;;;;;;;21062971;28;20069;-62
2022/10/24 23:18:39;;;;;;;6.32;2.10;;;;;;;;;;21080805;28;20081;-62
2022/10/24 23:28:44;;;;;;;7.32;1.98;;;;;;;;;;21062457;28;20092;-62
2022/10/24 23:38:46;;;;;;;4.82;1.55;;;;;;;;;;21080437;28;20171;-63
2022/10/24 23:48:48;;;;;;;6.85;1.90;;;;;;;;;;21078273;28;20058;-61
2022/10/24 23:58:51;;;;;;;4.57;1.38;;;;;;;;;;21077633;28;20056;-62
